sensor_id;sensor_type;location;lat;lon;timestamp;pressure;altitude;pressure_sealevel;temperature;humidity
31082;BME280;17737;52.586;13.284;2023-05-08T00:00:12;102199.09;;;8.82;69.72
31082;BME280;17737;52.586;13.284;2023-05-08T00:02:42;102198.00;;;8.85;69.78
31082;BME280;17737;52.586;13.284;2023-05-08T00:05:10;102199.22;;;8.81;69.74
31082;BME280;17737;52.586;13.284;2023-05-08T00:07:38;102197.53;;;8.80;69.68
31082;BME280;17737;52.586;13.284;2023-05-08T00:10:07;102192.00;;;8.70;70.08
31082;BME280;17737;52.586;13.284;2023-05-08T00:12:36;102186.28;;;8.75;70.03
31082;BME280;17737;52.586;13.284;2023-05-08T00:15:05;102191.19;;;8.70;70.28
31082;BME280;17737;52.586;13.284;2023-05-08T00:17:34;102189.69;;;8.66;70.22
31082;BME280;17737;52.586;13.284;2023-05-08T00:20:05;102195.31;;;8.63;70.51
31082;BME280;17737;52.586;13.284;2023-05-08T00:22:34;102189.44;;;8.58;70.57
31082;BME280;17737;52.586;13.284;2023-05-08T00:25:02;102189.19;;;8.61;70.31
31082;BME280;17737;52.586;13.284;2023-05-08T00:27:31;102196.03;;;8.54;70.44
31082;BME280;17737;52.586;13.284;2023-05-08T00:29:59;102204.56;;;8.48;70.50
31082;BME280;17737;52.586;13.284;2023-05-08T00:32:27;102192.72;;;8.50;71.05
31082;BME280;17737;52.586;13.284;2023-05-08T00:34:55;102198.09;;;8.50;70.66
31082;BME280;17737;52.586;13.284;2023-05-08T00:37:24;102197.22;;;8.38;71.05
31082;BME280;17737;52.586;13.284;2023-05-08T00:39:52;102203.22;;;8.42;70.86
31082;BME280;17737;52.586;13.284;2023-05-08T00:42:20;102203.47;;;8.39;71.40
31082;BME280;17737;52.586;13.284;2023-05-08T00:44:48;102206.59;;;8.33;71.51
31082;BME280;17737;52.586;13.284;2023-05-08T00:47:16;102208.34;;;8.34;71.57
31082;BME280;17737;52.586;13.284;2023-05-08T00:49:44;102212.09;;;8.31;71.37
31082;BME280;17737;52.586;13.284;2023-05-08T00:52:12;102212.22;;;8.30;71.53
31082;BME280;17737;52.586;13.284;2023-05-08T00:54:42;102219.78;;;8.25;71.58
31082;BME280;17737;52.586;13.284;2023-05-08T00:57:13;102219.66;;;8.26;71.56
31082;BME280;17737;52.586;13.284;2023-05-08T00:59:42;102215.44;;;8.22;72.09
31082;BME280;17737;52.586;13.284;2023-05-08T01:02:12;102223.88;;;8.18;72.06
31082;BME280;17737;52.586;13.284;2023-05-08T01:04:41;102224.97;;;8.15;72.17
31082;BME280;17737;52.586;13.284;2023-05-08T01:07:11;102226.03;;;8.13;72.39
31082;BME280;17737;52.586;13.284;2023-05-08T01:09:39;102219.06;;;8.10;72.16
31082;BME280;17737;52.586;13.284;2023-05-08T01:12:14;102222.16;;;8.17;71.77
31082;BME280;17737;52.586;13.284;2023-05-08T01:15:06;102224.44;;;8.10;71.64
31082;BME280;17737;52.586;13.284;2023-05-08T01:17:52;102227.72;;;8.03;71.97
31082;BME280;17737;52.586;13.284;2023-05-08T01:20:39;102220.88;;;7.99;72.06
31082;BME280;17737;52.586;13.284;2023-05-08T01:26:55;102210.25;;;7.97;72.20
31082;BME280;17737;52.586;13.284;2023-05-08T01:30:18;102214.34;;;7.90;71.95
31082;BME280;17737;52.586;13.284;2023-05-08T01:33:13;102214.72;;;7.86;72.42
31082;BME280;17737;52.586;13.284;2023-05-08T01:35:49;102222.41;;;7.90;72.60
31082;BME280;17737;52.586;13.284;2023-05-08T01:38:29;102218.97;;;7.88;72.12
31082;BME280;17737;52.586;13.284;2023-05-08T01:41:07;102221.16;;;7.83;72.25
31082;BME280;17737;52.586;13.284;2023-05-08T01:43:49;102221.16;;;7.83;72.79
31082;BME280;17737;52.586;13.284;2023-05-08T01:46:26;102227.22;;;7.74;72.37
31082;BME280;17737;52.586;13.284;2023-05-08T01:49:04;102238.59;;;7.78;72.33
31082;BME280;17737;52.586;13.284;2023-05-08T01:51:39;102231.38;;;7.78;72.56
31082;BME280;17737;52.586;13.284;2023-05-08T01:54:14;102227.66;;;7.68;73.13
31082;BME280;17737;52.586;13.284;2023-05-08T01:56:47;102225.97;;;7.67;72.98
31082;BME280;17737;52.586;13.284;2023-05-08T01:59:21;102228.53;;;7.69;73.25
31082;BME280;17737;52.586;13.284;2023-05-08T02:01:54;102230.47;;;7.67;72.58
31082;BME280;17737;52.586;13.284;2023-05-08T02:04:27;102229.00;;;7.63;73.09
31082;BME280;17737;52.586;13.284;2023-05-08T02:06:57;102237.78;;;7.65;72.98
31082;BME280;17737;52.586;13.284;2023-05-08T02:09:28;102238.47;;;7.56;73.70
31082;BME280;17737;52.586;13.284;2023-05-08T02:11:59;102237.38;;;7.58;73.25
31082;BME280;17737;52.586;13.284;2023-05-08T02:14:29;102231.38;;;7.55;73.29
31082;BME280;17737;52.586;13.284;2023-05-08T02:17:01;102232.16;;;7.44;73.95
31082;BME280;17737;52.586;13.284;2023-05-08T02:19:33;102228.81;;;7.53;73.92
31082;BME280;17737;52.586;13.284;2023-05-08T02:22:06;102227.66;;;7.45;74.11
31082;BME280;17737;52.586;13.284;2023-05-08T02:24:37;102220.78;;;7.41;74.34
31082;BME280;17737;52.586;13.284;2023-05-08T02:27:08;102222.66;;;7.40;74.30
31082;BME280;17737;52.586;13.284;2023-05-08T02:29:37;102225.44;;;7.39;74.32
31082;BME280;17737;52.586;13.284;2023-05-08T02:32:07;102230.59;;;7.29;74.87
31082;BME280;17737;52.586;13.284;2023-05-08T02:34:39;102228.56;;;7.32;74.58
31082;BME280;17737;52.586;13.284;2023-05-08T02:37:27;102226.84;;;7.32;74.15
31082;BME280;17737;52.586;13.284;2023-05-08T02:40:00;102223.53;;;7.28;74.25
31082;BME280;17737;52.586;13.284;2023-05-08T02:42:30;102223.56;;;7.15;75.10
31082;BME280;17737;52.586;13.284;2023-05-08T02:44:58;102218.53;;;7.23;75.11
31082;BME280;17737;52.586;13.284;2023-05-08T02:47:31;102227.84;;;7.18;74.80
31082;BME280;17737;52.586;13.284;2023-05-08T02:50:14;102221.19;;;7.23;74.27
31082;BME280;17737;52.586;13.284;2023-05-08T02:52:48;102221.22;;;7.11;74.75
31082;BME280;17737;52.586;13.284;2023-05-08T02:55:28;102226.81;;;7.08;74.96
31082;BME280;17737;52.586;13.284;2023-05-08T02:58:08;102225.28;;;7.04;74.76
31082;BME280;17737;52.586;13.284;2023-05-08T03:00:46;102220.06;;;7.02;74.74
31082;BME280;17737;52.586;13.284;2023-05-08T03:03:21;102224.25;;;6.94;75.77
31082;BME280;17737;52.586;13.284;2023-05-08T03:05:56;102227.44;;;6.99;74.99
31082;BME280;17737;52.586;13.284;2023-05-08T03:08:31;102225.94;;;6.95;74.88
31082;BME280;17737;52.586;13.284;2023-05-08T03:11:04;102226.69;;;6.97;75.33
31082;BME280;17737;52.586;13.284;2023-05-08T03:13:39;102231.09;;;6.98;75.08
31082;BME280;17737;52.586;13.284;2023-05-08T03:16:12;102225.75;;;6.98;74.63
31082;BME280;17737;52.586;13.284;2023-05-08T03:19:04;102233.44;;;7.02;74.91
31082;BME280;17737;52.586;13.284;2023-05-08T03:21:39;102232.50;;;6.91;75.40
31082;BME280;17737;52.586;13.284;2023-05-08T03:24:13;102242.03;;;6.95;75.40
31082;BME280;17737;52.586;13.284;2023-05-08T03:26:44;102239.34;;;6.95;74.99
31082;BME280;17737;52.586;13.284;2023-05-08T03:29:13;102233.47;;;6.90;75.10
31082;BME280;17737;52.586;13.284;2023-05-08T03:31:43;102241.72;;;6.87;75.12
31082;BME280;17737;52.586;13.284;2023-05-08T03:34:13;102236.03;;;6.91;75.41
31082;BME280;17737;52.586;13.284;2023-05-08T03:36:45;102230.78;;;6.90;75.58
31082;BME280;17737;52.586;13.284;2023-05-08T03:39:13;102228.84;;;7.04;75.03
31082;BME280;17737;52.586;13.284;2023-05-08T03:41:41;102240.75;;;6.88;75.55
31082;BME280;17737;52.586;13.284;2023-05-08T03:44:11;102241.94;;;6.84;75.30
31082;BME280;17737;52.586;13.284;2023-05-08T03:46:41;102243.97;;;6.93;75.60
31082;BME280;17737;52.586;13.284;2023-05-08T03:49:10;102250.41;;;7.03;75.37
31082;BME280;17737;52.586;13.284;2023-05-08T03:51:41;102242.78;;;6.97;74.77
31082;BME280;17737;52.586;13.284;2023-05-08T03:54:11;102244.16;;;7.02;75.20
31082;BME280;17737;52.586;13.284;2023-05-08T03:56:39;102241.84;;;7.70;73.13
31082;BME280;17737;52.586;13.284;2023-05-08T03:59:13;102242.19;;;8.59;70.25
31082;BME280;17737;52.586;13.284;2023-05-08T04:01:50;102250.31;;;9.36;67.33
31082;BME280;17737;52.586;13.284;2023-05-08T04:04:32;102247.25;;;9.83;65.30
31082;BME280;17737;52.586;13.284;2023-05-08T04:07:09;102246.31;;;10.05;63.65
31082;BME280;17737;52.586;13.284;2023-05-08T04:09:50;102243.25;;;10.61;62.04
31082;BME280;17737;52.586;13.284;2023-05-08T04:12:32;102248.66;;;10.71;61.91
31082;BME280;17737;52.586;13.284;2023-05-08T04:15:09;102242.09;;;11.15;60.02
31082;BME280;17737;52.586;13.284;2023-05-08T04:17:48;102245.97;;;11.22;59.91
31082;BME280;17737;52.586;13.284;2023-05-08T04:20:21;102249.06;;;11.57;58.80
31082;BME280;17737;52.586;13.284;2023-05-08T04:22:53;102242.50;;;11.50;58.53
31082;BME280;17737;52.586;13.284;2023-05-08T04:25:24;102246.72;;;11.82;57.31
31082;BME280;17737;52.586;13.284;2023-05-08T04:27:53;102241.50;;;12.00;57.39
31082;BME280;17737;52.586;13.284;2023-05-08T04:30:23;102240.06;;;12.05;56.21
31082;BME280;17737;52.586;13.284;2023-05-08T04:32:53;102245.47;;;12.15;56.43
31082;BME280;17737;52.586;13.284;2023-05-08T04:35:21;102251.31;;;12.20;55.94
31082;BME280;17737;52.586;13.284;2023-05-08T04:37:49;102257.69;;;12.38;56.12
31082;BME280;17737;52.586;13.284;2023-05-08T04:40:18;102255.16;;;12.27;54.99
31082;BME280;17737;52.586;13.284;2023-05-08T04:42:47;102262.78;;;12.60;54.66
31082;BME280;17737;52.586;13.284;2023-05-08T04:45:16;102272.19;;;12.66;54.34
31082;BME280;17737;52.586;13.284;2023-05-08T04:47:44;102258.63;;;12.75;54.21
31082;BME280;17737;52.586;13.284;2023-05-08T04:50:12;102268.19;;;12.70;53.91
31082;BME280;17737;52.586;13.284;2023-05-08T04:52:40;102278.16;;;12.69;53.49
31082;BME280;17737;52.586;13.284;2023-05-08T04:55:09;102277.28;;;12.78;53.09
31082;BME280;17737;52.586;13.284;2023-05-08T04:57:37;102290.81;;;12.69;52.51
31082;BME280;17737;52.586;13.284;2023-05-08T05:00:08;102276.72;;;12.75;53.21
31082;BME280;17737;52.586;13.284;2023-05-08T05:02:36;102285.66;;;12.75;52.34
31082;BME280;17737;52.586;13.284;2023-05-08T05:05:05;102284.09;;;11.87;54.21
31082;BME280;17737;52.586;13.284;2023-05-08T05:07:34;102280.56;;;10.86;57.73
31082;BME280;17737;52.586;13.284;2023-05-08T05:10:02;102284.09;;;11.08;58.28
31082;BME280;17737;52.586;13.284;2023-05-08T05:12:30;102290.47;;;11.76;55.37
31082;BME280;17737;52.586;13.284;2023-05-08T05:14:58;102293.81;;;12.66;53.76
31082;BME280;17737;52.586;13.284;2023-05-08T05:17:29;102294.75;;;13.03;51.97
31082;BME280;17737;52.586;13.284;2023-05-08T05:19:57;102294.50;;;12.77;52.47
31082;BME280;17737;52.586;13.284;2023-05-08T05:22:25;102290.34;;;11.78;55.05
31082;BME280;17737;52.586;13.284;2023-05-08T05:24:54;102294.84;;;10.98;59.59
31082;BME280;17737;52.586;13.284;2023-05-08T05:27:22;102295.19;;;10.63;60.70
31082;BME280;17737;52.586;13.284;2023-05-08T05:29:50;102303.66;;;10.59;58.73
31082;BME280;17737;52.586;13.284;2023-05-08T05:32:18;102304.75;;;10.36;61.03
31082;BME280;17737;52.586;13.284;2023-05-08T05:34:48;102300.69;;;10.41;61.86
31082;BME280;17737;52.586;13.284;2023-05-08T05:37:16;102297.88;;;10.32;62.81
31082;BME280;17737;52.586;13.284;2023-05-08T05:39:44;102306.81;;;10.43;61.84
31082;BME280;17737;52.586;13.284;2023-05-08T05:42:12;102303.69;;;10.27;60.86
31082;BME280;17737;52.586;13.284;2023-05-08T05:44:40;102308.31;;;10.36;61.64
31082;BME280;17737;52.586;13.284;2023-05-08T05:47:08;102316.06;;;10.19;61.19
31082;BME280;17737;52.586;13.284;2023-05-08T05:49:37;102317.88;;;10.29;60.52
31082;BME280;17737;52.586;13.284;2023-05-08T05:52:09;102317.63;;;10.32;61.01
31082;BME280;17737;52.586;13.284;2023-05-08T05:54:37;102311.16;;;10.24;60.66
31082;BME280;17737;52.586;13.284;2023-05-08T05:57:07;102311.28;;;10.22;60.18
31082;BME280;17737;52.586;13.284;2023-05-08T05:59:35;102313.50;;;10.17;60.84
31082;BME280;17737;52.586;13.284;2023-05-08T06:02:03;102304.34;;;10.20;60.33
31082;BME280;17737;52.586;13.284;2023-05-08T06:04:33;102308.84;;;10.19;60.92
31082;BME280;17737;52.586;13.284;2023-05-08T06:07:01;102315.19;;;10.29;59.57
31082;BME280;17737;52.586;13.284;2023-05-08T06:09:30;102313.59;;;10.27;60.16
31082;BME280;17737;52.586;13.284;2023-05-08T06:11:58;102319.53;;;10.41;59.10
31082;BME280;17737;52.586;13.284;2023-05-08T06:14:26;102310.47;;;10.42;58.73
31082;BME280;17737;52.586;13.284;2023-05-08T06:16:54;102317.66;;;10.53;58.33
31082;BME280;17737;52.586;13.284;2023-05-08T06:19:22;102314.63;;;10.46;59.00
31082;BME280;17737;52.586;13.284;2023-05-08T06:21:50;102320.63;;;10.70;58.81
31082;BME280;17737;52.586;13.284;2023-05-08T06:24:18;102329.69;;;10.69;57.83
31082;BME280;17737;52.586;13.284;2023-05-08T06:26:48;102326.63;;;10.74;58.48
31082;BME280;17737;52.586;13.284;2023-05-08T06:29:16;102327.84;;;10.91;56.89
31082;BME280;17737;52.586;13.284;2023-05-08T06:31:44;102319.44;;;10.84;56.37
31082;BME280;17737;52.586;13.284;2023-05-08T06:34:12;102329.63;;;10.80;55.87
31082;BME280;17737;52.586;13.284;2023-05-08T06:36:40;102328.25;;;10.86;56.12
31082;BME280;17737;52.586;13.284;2023-05-08T06:39:07;102333.69;;;10.96;56.14
31082;BME280;17737;52.586;13.284;2023-05-08T06:41:36;102321.00;;;11.07;56.09
31082;BME280;17737;52.586;13.284;2023-05-08T06:44:05;102329.59;;;11.22;54.75
31082;BME280;17737;52.586;13.284;2023-05-08T06:46:33;102323.75;;;11.17;55.41
31082;BME280;17737;52.586;13.284;2023-05-08T06:49:01;102320.34;;;11.15;54.65
31082;BME280;17737;52.586;13.284;2023-05-08T06:51:29;102327.59;;;11.24;53.73
31082;BME280;17737;52.586;13.284;2023-05-08T06:53:58;102327.50;;;11.25;53.70
31082;BME280;17737;52.586;13.284;2023-05-08T06:56:26;102333.66;;;11.37;52.23
31082;BME280;17737;52.586;13.284;2023-05-08T06:58:54;102330.97;;;11.37;52.91
31082;BME280;17737;52.586;13.284;2023-05-08T07:01:35;102323.13;;;11.34;51.62
31082;BME280;17737;52.586;13.284;2023-05-08T07:04:04;102322.88;;;11.46;51.55
31082;BME280;17737;52.586;13.284;2023-05-08T07:06:32;102319.81;;;11.60;51.12
31082;BME280;17737;52.586;13.284;2023-05-08T07:09:00;102322.91;;;11.86;51.59
31082;BME280;17737;52.586;13.284;2023-05-08T07:11:28;102322.88;;;11.76;51.06
31082;BME280;17737;52.586;13.284;2023-05-08T07:13:56;102329.34;;;11.94;50.36
31082;BME280;17737;52.586;13.284;2023-05-08T07:16:24;102325.63;;;11.95;50.32
31082;BME280;17737;52.586;13.284;2023-05-08T07:18:53;102321.81;;;11.98;50.36
31082;BME280;17737;52.586;13.284;2023-05-08T07:21:21;102328.19;;;11.87;49.57
31082;BME280;17737;52.586;13.284;2023-05-08T07:23:50;102332.78;;;12.06;49.24
31082;BME280;17737;52.586;13.284;2023-05-08T07:26:19;102321.41;;;12.22;49.87
31082;BME280;17737;52.586;13.284;2023-05-08T07:28:47;102328.81;;;12.10;49.82
31082;BME280;17737;52.586;13.284;2023-05-08T07:31:16;102323.41;;;12.10;49.81
31082;BME280;17737;52.586;13.284;2023-05-08T07:33:44;102327.38;;;12.16;48.51
31082;BME280;17737;52.586;13.284;2023-05-08T07:36:13;102325.38;;;12.08;48.86
31082;BME280;17737;52.586;13.284;2023-05-08T07:38:41;102331.56;;;11.80;48.36
31082;BME280;17737;52.586;13.284;2023-05-08T07:41:09;102332.69;;;11.68;48.34
31082;BME280;17737;52.586;13.284;2023-05-08T07:43:37;102320.50;;;11.83;48.19
31082;BME280;17737;52.586;13.284;2023-05-08T07:46:05;102320.22;;;11.86;48.83
31082;BME280;17737;52.586;13.284;2023-05-08T07:48:33;102320.94;;;11.97;47.55
31082;BME280;17737;52.586;13.284;2023-05-08T07:51:01;102327.06;;;12.09;47.74
31082;BME280;17737;52.586;13.284;2023-05-08T07:53:31;102324.97;;;12.22;47.10
31082;BME280;17737;52.586;13.284;2023-05-08T07:55:59;102321.72;;;12.19;46.89
31082;BME280;17737;52.586;13.284;2023-05-08T07:58:27;102328.81;;;12.10;46.78
31082;BME280;17737;52.586;13.284;2023-05-08T08:00:55;102323.13;;;12.32;47.77
31082;BME280;17737;52.586;13.284;2023-05-08T08:03:23;102328.81;;;12.39;46.27
31082;BME280;17737;52.586;13.284;2023-05-08T08:05:51;102313.88;;;12.35;45.82
31082;BME280;17737;52.586;13.284;2023-05-08T08:08:19;102318.72;;;12.41;45.81
31082;BME280;17737;52.586;13.284;2023-05-08T08:10:48;102305.78;;;12.35;45.15
31082;BME280;17737;52.586;13.284;2023-05-08T08:13:16;102302.66;;;12.49;45.28
31082;BME280;17737;52.586;13.284;2023-05-08T08:15:44;102311.63;;;12.49;44.89
31082;BME280;17737;52.586;13.284;2023-05-08T08:18:12;102309.34;;;12.54;45.35
31082;BME280;17737;52.586;13.284;2023-05-08T08:20:41;102308.44;;;12.82;45.79
31082;BME280;17737;52.586;13.284;2023-05-08T08:23:09;102297.19;;;12.87;44.71
31082;BME280;17737;52.586;13.284;2023-05-08T08:25:37;102312.00;;;12.83;45.59
31082;BME280;17737;52.586;13.284;2023-05-08T08:28:06;102310.00;;;12.85;44.80
31082;BME280;17737;52.586;13.284;2023-05-08T08:30:34;102297.75;;;12.90;45.01
31082;BME280;17737;52.586;13.284;2023-05-08T08:33:03;102305.16;;;13.07;44.78
31082;BME280;17737;52.586;13.284;2023-05-08T08:35:32;102306.56;;;13.11;44.39
31082;BME280;17737;52.586;13.284;2023-05-08T08:38:00;102313.13;;;13.09;44.34
31082;BME280;17737;52.586;13.284;2023-05-08T08:40:28;102310.50;;;13.27;43.84
31082;BME280;17737;52.586;13.284;2023-05-08T08:42:56;102303.50;;;13.61;44.19
31082;BME280;17737;52.586;13.284;2023-05-08T08:45:26;102294.66;;;13.59;43.64
31082;BME280;17737;52.586;13.284;2023-05-08T08:47:59;102296.84;;;13.82;42.12
31082;BME280;17737;52.586;13.284;2023-05-08T08:50:30;102299.78;;;13.89;41.50
31082;BME280;17737;52.586;13.284;2023-05-08T08:53:05;102296.16;;;13.98;41.72
31082;BME280;17737;52.586;13.284;2023-05-08T08:55:39;102291.47;;;13.73;41.47
31082;BME280;17737;52.586;13.284;2023-05-08T08:58:15;102297.03;;;13.71;40.65
31082;BME280;17737;52.586;13.284;2023-05-08T09:00:50;102300.19;;;13.94;41.12
31082;BME280;17737;52.586;13.284;2023-05-08T09:03:20;102287.19;;;14.15;39.88
31082;BME280;17737;52.586;13.284;2023-05-08T09:05:48;102287.00;;;14.26;40.19
31082;BME280;17737;52.586;13.284;2023-05-08T09:08:18;102297.09;;;14.24;40.99
31082;BME280;17737;52.586;13.284;2023-05-08T09:10:46;102288.41;;;14.30;39.31
31082;BME280;17737;52.586;13.284;2023-05-08T09:13:14;102284.78;;;14.12;39.00
31082;BME280;17737;52.586;13.284;2023-05-08T09:15:45;102293.00;;;14.02;39.58
31082;BME280;17737;52.586;13.284;2023-05-08T09:18:16;102295.56;;;14.21;38.38
31082;BME280;17737;52.586;13.284;2023-05-08T09:20:44;102288.97;;;14.24;38.89
31082;BME280;17737;52.586;13.284;2023-05-08T09:23:13;102300.56;;;14.26;37.33
31082;BME280;17737;52.586;13.284;2023-05-08T09:25:43;102296.81;;;14.27;37.06
31082;BME280;17737;52.586;13.284;2023-05-08T09:28:15;102296.28;;;14.41;37.17
31082;BME280;17737;52.586;13.284;2023-05-08T09:30:48;102291.63;;;14.33;38.04
31082;BME280;17737;52.586;13.284;2023-05-08T09:33:19;102296.28;;;14.41;39.52
31082;BME280;17737;52.586;13.284;2023-05-08T09:35:48;102296.66;;;14.64;38.76
31082;BME280;17737;52.586;13.284;2023-05-08T09:38:31;102282.25;;;14.89;37.59
31082;BME280;17737;52.586;13.284;2023-05-08T09:41:11;102276.78;;;14.81;37.69
31082;BME280;17737;52.586;13.284;2023-05-08T09:43:41;102293.97;;;14.89;36.01
31082;BME280;17737;52.586;13.284;2023-05-08T09:46:20;102292.53;;;14.77;35.57
31082;BME280;17737;52.586;13.284;2023-05-08T09:48:53;102292.78;;;14.66;36.26
31082;BME280;17737;52.586;13.284;2023-05-08T09:51:22;102302.00;;;14.73;36.79
31082;BME280;17737;52.586;13.284;2023-05-08T09:53:52;102293.97;;;15.15;36.61
31082;BME280;17737;52.586;13.284;2023-05-08T09:56:30;102290.44;;;14.97;37.29
31082;BME280;17737;52.586;13.284;2023-05-08T09:59:03;102288.94;;;14.94;37.32
31082;BME280;17737;52.586;13.284;2023-05-08T10:01:35;102284.03;;;14.98;36.83
31082;BME280;17737;52.586;13.284;2023-05-08T10:04:06;102280.47;;;14.97;37.25
31082;BME280;17737;52.586;13.284;2023-05-08T10:06:34;102279.19;;;15.09;37.49
31082;BME280;17737;52.586;13.284;2023-05-08T10:09:09;102282.13;;;15.49;35.11
31082;BME280;17737;52.586;13.284;2023-05-08T10:11:39;102278.06;;;15.20;36.68
31082;BME280;17737;52.586;13.284;2023-05-08T10:14:08;102271.59;;;15.46;36.85
31082;BME280;17737;52.586;13.284;2023-05-08T10:16:40;102268.47;;;15.67;36.22
31082;BME280;17737;52.586;13.284;2023-05-08T10:19:16;102271.53;;;15.72;35.10
31082;BME280;17737;52.586;13.284;2023-05-08T10:21:46;102276.41;;;15.52;35.71
31082;BME280;17737;52.586;13.284;2023-05-08T10:24:17;102273.03;;;15.67;35.63
31082;BME280;17737;52.586;13.284;2023-05-08T10:26:56;102265.13;;;15.97;35.41
31082;BME280;17737;52.586;13.284;2023-05-08T10:29:40;102275.78;;;15.75;35.17
31082;BME280;17737;52.586;13.284;2023-05-08T10:32:18;102260.13;;;15.69;35.28
31082;BME280;17737;52.586;13.284;2023-05-08T10:34:52;102260.56;;;15.90;35.19
31082;BME280;17737;52.586;13.284;2023-05-08T10:37:23;102255.97;;;15.98;35.75
31082;BME280;17737;52.586;13.284;2023-05-08T10:39:53;102251.59;;;16.05;35.53
31082;BME280;17737;52.586;13.284;2023-05-08T10:42:24;102255.00;;;16.23;35.20
31082;BME280;17737;52.586;13.284;2023-05-08T10:44:54;102238.81;;;15.98;34.47
31082;BME280;17737;52.586;13.284;2023-05-08T10:47:26;102255.44;;;15.87;34.75
31082;BME280;17737;52.586;13.284;2023-05-08T10:50:08;102249.16;;;15.94;33.94
31082;BME280;17737;52.586;13.284;2023-05-08T10:52:49;102241.34;;;15.91;33.20
31082;BME280;17737;52.586;13.284;2023-05-08T10:55:28;102249.72;;;16.14;33.74
31082;BME280;17737;52.586;13.284;2023-05-08T10:58:02;102241.38;;;16.31;34.03
31082;BME280;17737;52.586;13.284;2023-05-08T11:01:09;102232.75;;;16.36;33.98
31082;BME280;17737;52.586;13.284;2023-05-08T11:03:40;102230.88;;;16.44;34.21
31082;BME280;17737;52.586;13.284;2023-05-08T11:06:14;102228.63;;;16.40;32.61
31082;BME280;17737;52.586;13.284;2023-05-08T11:08:45;102224.41;;;16.45;32.96
31082;BME280;17737;52.586;13.284;2023-05-08T11:11:29;102225.75;;;16.41;31.36
31082;BME280;17737;52.586;13.284;2023-05-08T11:14:09;102232.56;;;16.53;32.14
31082;BME280;17737;52.586;13.284;2023-05-08T11:17:06;102235.97;;;16.80;32.14
31082;BME280;17737;52.586;13.284;2023-05-08T11:19:36;102237.50;;;16.50;31.45
31082;BME280;17737;52.586;13.284;2023-05-08T11:22:25;102234.28;;;16.62;31.81
31082;BME280;17737;52.586;13.284;2023-05-08T11:24:58;102230.31;;;16.89;31.57
31082;BME280;17737;52.586;13.284;2023-05-08T11:27:39;102211.94;;;16.91;31.11
31082;BME280;17737;52.586;13.284;2023-05-08T11:30:38;102217.94;;;16.70;32.20
31082;BME280;17737;52.586;13.284;2023-05-08T11:33:14;102223.38;;;16.70;31.25
31082;BME280;17737;52.586;13.284;2023-05-08T11:35:54;102218.94;;;16.77;32.99
31082;BME280;17737;52.586;13.284;2023-05-08T11:38:29;102221.31;;;16.81;31.23
31082;BME280;17737;52.586;13.284;2023-05-08T11:41:03;102213.66;;;16.92;31.19
31082;BME280;17737;52.586;13.284;2023-05-08T11:46:48;102211.59;;;16.94;31.95
31082;BME280;17737;52.586;13.284;2023-05-08T11:49:19;102199.88;;;16.94;32.12
31082;BME280;17737;52.586;13.284;2023-05-08T11:51:57;102203.00;;;17.21;31.52
31082;BME280;17737;52.586;13.284;2023-05-08T11:54:30;102198.69;;;17.35;31.01
31082;BME280;17737;52.586;13.284;2023-05-08T11:56:58;102189.97;;;17.47;30.78
31082;BME280;17737;52.586;13.284;2023-05-08T11:59:27;102195.91;;;17.51;31.56
31082;BME280;17737;52.586;13.284;2023-05-08T12:01:55;102190.53;;;17.35;31.36
31082;BME280;17737;52.586;13.284;2023-05-08T12:04:42;102190.66;;;17.33;30.61
31082;BME280;17737;52.586;13.284;2023-05-08T12:07:12;102192.53;;;17.41;30.63
31082;BME280;17737;52.586;13.284;2023-05-08T12:09:42;102195.44;;;17.39;31.43
31082;BME280;17737;52.586;13.284;2023-05-08T12:12:13;102195.03;;;17.50;31.30
31082;BME280;17737;52.586;13.284;2023-05-08T12:14:41;102194.00;;;17.59;30.92
31082;BME280;17737;52.586;13.284;2023-05-08T12:17:09;102188.50;;;17.90;31.34
31082;BME280;17737;52.586;13.284;2023-05-08T12:19:37;102186.72;;;17.82;30.59
31082;BME280;17737;52.586;13.284;2023-05-08T12:22:07;102174.84;;;17.67;30.08
31082;BME280;17737;52.586;13.284;2023-05-08T12:24:35;102182.91;;;17.22;30.92
31082;BME280;17737;52.586;13.284;2023-05-08T12:27:04;102187.94;;;17.41;31.01
31082;BME280;17737;52.586;13.284;2023-05-08T12:29:34;102188.63;;;17.35;30.09
31082;BME280;17737;52.586;13.284;2023-05-08T12:32:03;102181.97;;;17.76;28.84
31082;BME280;17737;52.586;13.284;2023-05-08T12:34:32;102174.78;;;17.53;30.42
31082;BME280;17737;52.586;13.284;2023-05-08T12:37:02;102170.88;;;17.78;30.71
31082;BME280;17737;52.586;13.284;2023-05-08T12:39:34;102174.94;;;18.05;31.12
31082;BME280;17737;52.586;13.284;2023-05-08T12:42:05;102167.06;;;17.87;29.98
31082;BME280;17737;52.586;13.284;2023-05-08T12:44:33;102163.00;;;17.60;30.69
31082;BME280;17737;52.586;13.284;2023-05-08T12:47:04;102170.69;;;17.79;29.86
31082;BME280;17737;52.586;13.284;2023-05-08T12:49:32;102163.91;;;17.75;30.02
31082;BME280;17737;52.586;13.284;2023-05-08T12:52:04;102162.78;;;17.92;30.50
31082;BME280;17737;52.586;13.284;2023-05-08T12:54:34;102166.47;;;17.77;30.08
31082;BME280;17737;52.586;13.284;2023-05-08T12:57:09;102171.91;;;17.77;29.16
31082;BME280;17737;52.586;13.284;2023-05-08T12:59:38;102151.06;;;17.61;28.50
31082;BME280;17737;52.586;13.284;2023-05-08T13:02:13;102164.56;;;17.77;29.04
31082;BME280;17737;52.586;13.284;2023-05-08T13:04:43;102169.38;;;17.75;29.16
31082;BME280;17737;52.586;13.284;2023-05-08T13:07:12;102149.81;;;17.64;29.67
31082;BME280;17737;52.586;13.284;2023-05-08T13:09:55;102155.66;;;18.06;29.98
31082;BME280;17737;52.586;13.284;2023-05-08T13:12:26;102153.25;;;17.88;30.56